La Fayette, Minnesota
Current Conditions -  °F | °C
As of 8:54 PM on Sunday 21 Dec 2014 (Local Time) from KULM Reporting Station
Haze Haze  
Wind Chill: 29°   Ceiling: 800
Heat Index: 37°   Visibility: 4mi
Dew Point: 37°   Wind: 13mph
Humidity: 100%   Direction: 180°S
Pressure: 29.68"   Gusts: 20mph
Location:  44.4029°N, 94.4435°W
Report Text: KULM 220254Z AUTO 18011G17KT 4SM BR OVC008 03/03 A2968 RMK AO2
Loading
Personal Weather Stations






























Interactive Weather Map New forecast layout! Learn more

10-Day Weather Forecast

Advertisements
Track Severe Weather on mobile